Time;durP1;ratioP1;P1;durP2;ratioP2;P2;SDS_P1;SDS_P2;PMS_P1;PMS_P2;Temp;Humidity;BMP_temperature;BMP_pressure;BME280_temperature;BME280_humidity;BME280_pressure;Samples;Min_cycle;Max_cycle;Signal;HPM_P1;HPM_P2
2022/11/17 00:00:41;;;;;;;14.07;9.30;;;;;;;2.35;100.00;94841.63;5033019;28;101920;-63
2022/11/17 00:03:14;;;;;;;10.33;9.30;;;;;;;2.29;100.00;94834.72;5029549;28;103258;-63
2022/11/17 00:05:42;;;;;;;14.23;9.33;;;;;;;2.27;100.00;94837.56;5030061;28;101821;-63
2022/11/17 00:08:09;;;;;;;10.70;9.60;;;;;;;2.30;100.00;94829.19;5030141;28;102837;-63
2022/11/17 00:10:36;;;;;;;19.50;9.20;;;;;;;2.17;100.00;94824.28;5029027;28;103059;-63
2022/11/17 00:15:48;;;;;;;11.37;9.87;;;;;;;2.17;100.00;94819.03;5030105;28;101696;-63
2022/11/17 00:21:22;;;;;;;9.87;8.87;;;;;;;1.98;100.00;94801.13;5033290;28;101872;-63
2022/11/17 00:23:49;;;;;;;8.63;7.73;;;;;;;1.91;100.00;94801.25;5029187;28;104562;-63
2022/11/17 00:26:18;;;;;;;7.90;7.10;;;;;;;1.73;100.00;94803.28;5029051;28;101866;-63
2022/11/17 00:28:45;;;;;;;33.30;7.73;;;;;;;1.84;100.00;94799.81;5029606;28;102989;-63
2022/11/17 00:34:06;;;;;;;8.03;7.17;;;;;;;1.82;100.00;94794.03;5011606;28;102431;-63
2022/11/17 00:36:39;;;;;;;7.70;7.00;;;;;;;1.89;100.00;94795.47;5030025;28;102832;-63
2022/11/17 00:39:06;;;;;;;14.27;8.33;;;;;;;1.92;100.00;94804.69;5028383;28;102712;-63
2022/11/17 00:41:33;;;;;;;13.47;10.23;;;;;;;2.01;100.00;94792.78;5014180;28;101925;-63
2022/11/17 00:44:01;;;;;;;12.23;8.73;;;;;;;1.91;100.00;94790.00;5035227;28;102825;-63
2022/11/17 00:46:28;;;;;;;10.97;9.10;;;;;;;1.97;100.00;94791.69;5032358;28;102055;-63
2022/11/17 00:48:55;;;;;;;11.27;8.10;;;;;;;1.92;100.00;94791.59;5021700;28;102915;-63
2022/11/17 00:51:24;;;;;;;8.60;7.70;;;;;;;1.99;100.00;94786.97;5013796;28;105832;-63
2022/11/17 00:53:51;;;;;;;8.37;7.57;;;;;;;1.79;100.00;94782.19;5014778;28;101875;-63
2022/11/17 00:56:19;;;;;;;8.03;7.33;;;;;;;1.88;100.00;94780.78;5032765;28;102612;-63
2022/11/17 00:58:46;;;;;;;10.83;7.20;;;;;;;1.74;100.00;94791.75;5047886;27;105299;-63
2022/11/17 01:01:13;;;;;;;7.53;6.77;;;;;;;1.91;100.00;94797.88;5032800;28;101952;-63
2022/11/17 01:03:40;;;;;;;12.90;7.57;;;;;;;1.81;100.00;94782.72;5032975;28;102949;-63
2022/11/17 01:06:09;;;;;;;28.27;7.80;;;;;;;1.88;100.00;94790.47;5017377;28;105402;-63
2022/11/17 01:08:38;;;;;;;9.37;7.03;;;;;;;1.90;100.00;94788.38;5032859;28;103251;-63
2022/11/17 01:11:07;;;;;;;7.10;6.50;;;;;;;1.96;100.00;94784.81;5031931;28;102732;-63
2022/11/17 01:13:35;;;;;;;7.60;6.93;;;;;;;1.93;100.00;94790.56;5014138;28;101923;-63
2022/11/17 01:16:08;;;;;;;7.27;6.63;;;;;;;1.93;100.00;94787.94;5014665;28;105244;-63
2022/11/17 01:18:35;;;;;;;7.03;6.43;;;;;;;1.96;100.00;94779.56;5013581;28;105477;-63
2022/11/17 01:21:08;;;;;;;7.03;6.53;;;;;;;1.96;100.00;94774.34;5021653;28;101873;-63
2022/11/17 01:23:37;;;;;;;7.53;6.87;;;;;;;2.03;100.00;94778.41;5032312;28;104053;-63
2022/11/17 01:26:07;;;;;;;7.37;6.77;;;;;;;1.98;100.00;94775.69;5031525;28;102679;-63
2022/11/17 01:28:34;;;;;;;7.10;6.50;;;;;;;2.00;100.00;94775.47;5036056;28;101873;-63
2022/11/17 01:31:03;;;;;;;7.57;6.97;;;;;;;2.10;100.00;94778.25;5013382;28;107370;-63
2022/11/17 01:33:33;;;;;;;7.70;7.00;;;;;;;2.21;100.00;94787.88;5032020;28;101825;-63
2022/11/17 01:36:02;;;;;;;7.60;7.00;;;;;;;2.23;100.00;94780.56;5032355;28;102348;-63
2022/11/17 01:38:30;;;;;;;8.33;7.63;;;;;;;2.24;100.00;94777.72;5031164;28;102661;-63
2022/11/17 01:40:59;;;;;;;7.77;7.17;;;;;;;2.25;100.00;94779.28;5032386;28;101986;-63
2022/11/17 01:43:41;;;;;;;7.90;7.30;;;;;;;2.37;100.00;94773.97;5013638;28;105423;-63
2022/11/17 01:46:14;;;;;;;7.30;6.70;;;;;;;2.44;100.00;94772.78;5012747;28;104733;-63
2022/11/17 01:48:43;;;;;;;8.47;7.77;;;;;;;2.51;100.00;94772.63;5013773;28;101850;-63
2022/11/17 01:51:11;;;;;;;8.43;7.73;;;;;;;2.52;100.00;94771.59;5034453;28;102789;-63
2022/11/17 01:53:38;;;;;;;8.23;7.53;;;;;;;2.54;100.00;94767.69;5013361;28;101764;-63
2022/11/17 01:56:11;;;;;;;8.00;7.37;;;;;;;2.58;100.00;94773.25;5031658;28;101663;-63
2022/11/17 01:58:44;;;;;;;8.27;7.60;;;;;;;2.52;100.00;94782.88;5031435;28;103213;-63
2022/11/17 02:01:11;;;;;;;8.40;7.70;;;;;;;2.55;100.00;94785.03;5032164;28;102127;-63
2022/11/17 02:03:40;;;;;;;8.20;7.50;;;;;;;2.66;100.00;94797.25;5031665;28;102422;-63
2022/11/17 02:06:10;;;;;;;8.43;7.73;;;;;;;2.67;100.00;94792.81;5031264;28;102442;-63
2022/11/17 02:08:40;;;;;;;8.27;7.57;;;;;;;2.68;100.00;94802.28;5031624;28;103617;-63
2022/11/17 02:11:12;;;;;;;8.63;7.93;;;;;;;2.69;100.00;94798.59;5013443;28;105336;-63
2022/11/17 02:13:41;;;;;;;8.93;8.13;;;;;;;2.75;100.00;94789.78;5016153;28;105865;-63
2022/11/17 02:16:11;;;;;;;8.40;7.70;;;;;;;2.85;100.00;94803.03;5031855;28;102454;-63
2022/11/17 02:18:39;;;;;;;8.97;8.23;;;;;;;2.85;100.00;94790.69;5031251;28;102669;-63
2022/11/17 02:21:32;;;;;;;8.83;8.10;;;;;;;2.68;100.00;94804.91;5031163;28;101951;-63
2022/11/17 02:24:38;;;;;;;8.40;7.70;;;;;;;2.75;100.00;94758.28;5031296;28;103960;-63
2022/11/17 02:27:46;;;;;;;9.47;8.67;;;;;;;2.74;100.00;94775.06;5012367;28;104431;-63
2022/11/17 02:30:18;;;;;;;9.63;8.83;;;;;;;2.65;100.00;94774.69;5015536;28;101843;-63
2022/11/17 02:32:57;;;;;;;9.57;8.77;;;;;;;2.85;100.00;94771.56;5031574;28;102885;-63
2022/11/17 02:35:30;;;;;;;8.87;8.17;;;;;;;3.03;100.00;94763.38;5033802;28;102497;-63
2022/11/17 02:38:07;;;;;;;9.87;9.03;;;;;;;3.02;100.00;94781.00;5013148;28;103537;-63
2022/11/17 02:40:38;;;;;;;10.07;9.17;;;;;;;2.92;100.00;94780.03;5030662;28;102564;-63
2022/11/17 02:46:01;;;;;;;10.03;9.10;;;;;;;3.01;100.00;94763.63;5015173;28;102369;-63
2022/11/17 02:48:32;;;;;;;10.67;9.67;;;;;;;3.11;100.00;94768.22;5030488;28;103574;-63
2022/11/17 02:51:00;;;;;;;10.07;9.20;;;;;;;3.05;100.00;94756.03;5013122;28;101821;-63
2022/11/17 02:53:28;;;;;;;9.67;8.87;;;;;;;3.24;100.00;94744.22;5031068;28;102433;-63
2022/11/17 02:56:00;;;;;;;9.87;9.00;;;;;;;3.20;100.00;94729.97;5030570;28;103116;-63
2022/11/17 02:58:28;;;;;;;8.93;8.13;;;;;;;3.24;100.00;94723.22;5034584;28;101719;-63
2022/11/17 03:01:18;;;;;;;9.50;8.70;;;;;;;3.24;100.00;94728.47;5030733;28;103277;-63
2022/11/17 03:04:00;;;;;;;8.83;8.03;;;;;;;3.19;100.00;94729.22;5029386;27;101790;-63
2022/11/17 03:06:41;;;;;;;8.63;7.87;;;;;;;3.35;100.00;94709.16;5030826;28;102445;-63
2022/11/17 03:09:15;;;;;;;9.90;8.90;;;;;;;3.29;100.00;94724.03;5030265;28;102768;-63
2022/11/17 03:11:48;;;;;;;9.50;8.63;;;;;;;3.38;100.00;94732.31;5012474;28;102159;-63
2022/11/17 03:14:22;;;;;;;9.37;8.33;;;;;;;3.40;100.00;94730.22;5012668;28;105723;-63
2022/11/17 03:16:57;;;;;;;9.87;8.97;;;;;;;3.34;100.00;94728.59;5030001;28;102617;-63
2022/11/17 03:19:29;;;;;;;9.07;8.27;;;;;;;3.46;100.00;94723.97;5030712;28;101788;-63
2022/11/17 03:22:04;;;;;;;9.83;9.03;;;;;;;3.51;100.00;94716.16;5015462;28;105426;-63
2022/11/17 03:24:33;;;;;;;9.40;8.60;;;;;;;3.48;100.00;94714.00;5030802;28;102027;-63
2022/11/17 03:27:06;;;;;;;9.67;8.77;;;;;;;3.64;100.00;94713.13;5012109;28;103559;-63
2022/11/17 03:29:35;;;;;;;9.70;8.90;;;;;;;3.64;100.00;94707.88;5030052;28;102764;-63
2022/11/17 03:32:11;;;;;;;9.63;8.83;;;;;;;3.66;100.00;94713.69;5012136;28;101893;-63
2022/11/17 03:34:44;;;;;;;9.30;8.50;;;;;;;3.64;100.00;94710.50;5031131;28;102355;-63
2022/11/17 03:37:14;;;;;;;9.43;8.63;;;;;;;3.56;100.00;94714.34;5030036;28;102509;-63
2022/11/17 03:39:43;;;;;;;9.33;8.53;;;;;;;3.67;100.00;94715.28;5029887;28;102351;-63
2022/11/17 03:42:16;;;;;;;9.13;8.33;;;;;;;3.76;100.00;94698.03;5011884;28;104696;-63
2022/11/17 03:44:49;;;;;;;10.07;9.17;;;;;;;3.64;100.00;94692.91;5033509;28;102991;-63
2022/11/17 03:47:22;;;;;;;9.53;8.73;;;;;;;3.70;100.00;94684.03;5030260;28;102775;-63
2022/11/17 03:49:55;;;;;;;9.87;8.97;;;;;;;3.66;100.00;94680.31;5045126;27;105359;-63
2022/11/17 03:52:24;;;;;;;9.80;8.93;;;;;;;3.63;100.00;94672.13;5011947;28;102098;-63
2022/11/17 03:54:51;;;;;;;9.53;8.73;;;;;;;3.69;100.00;94673.75;5030224;28;102743;-63
2022/11/17 03:57:27;;;;;;;10.07;9.17;;;;;;;3.79;100.00;94665.97;5029285;28;102997;-63
2022/11/17 03:59:59;;;;;;;10.10;9.00;;;;;;;3.77;100.00;94654.91;5011972;28;101828;-63
2022/11/17 04:02:28;;;;;;;10.30;9.40;;;;;;;3.74;100.00;94652.78;5030151;28;102367;-63
2022/11/17 04:07:40;;;;;;;9.63;8.83;;;;;;;3.83;100.00;94648.66;5014890;28;101962;-63
2022/11/17 04:10:09;;;;;;;10.03;9.13;;;;;;;3.84;100.00;94635.28;5011182;28;105628;-62
2022/11/17 04:18:14;;;;;;;10.40;9.27;;;;;;;3.85;100.00;94636.03;4998708;28;103688;-63
2022/11/17 04:20:42;;;;;;;10.33;9.40;;;;;;;3.84;100.00;94624.75;5015222;28;103137;-63
2022/11/17 04:23:12;;;;;;;10.07;9.13;;;;;;;3.85;100.00;94617.63;5033634;28;102981;-63
2022/11/17 04:28:39;;;;;;;9.60;8.80;;;;;;;3.94;100.00;94601.13;5033521;28;103447;-63
2022/11/17 04:31:09;;;;;;;10.10;9.10;;;;;;;3.90;100.00;94609.78;5051559;27;105427;-63
2022/11/17 04:33:44;;;;;;;10.20;9.20;;;;;;;3.92;100.00;94600.63;5014700;28;102066;-63
2022/11/17 04:36:13;;;;;;;11.13;10.13;;;;;;;3.87;100.00;94612.94;5015132;28;106257;-63
2022/11/17 04:38:41;;;;;;;9.63;8.73;;;;;;;3.89;100.00;94595.06;5012762;28;105441;-63
2022/11/17 04:43:55;;;;;;;9.00;8.20;;;;;;;3.89;100.00;94585.34;5033381;28;102663;-63
2022/11/17 04:46:23;;;;;;;8.90;8.10;;;;;;;3.88;100.00;94585.59;5032098;28;103125;-63
2022/11/17 04:48:53;;;;;;;9.53;8.50;;;;;;;3.92;100.00;94594.53;5014536;28;102039;-63
2022/11/17 04:51:20;;;;;;;9.83;8.93;;;;;;;3.85;100.00;94594.78;5035991;28;103229;-63
2022/11/17 04:53:48;;;;;;;9.40;8.60;;;;;;;3.89;100.00;94592.44;5014631;28;101997;-63
2022/11/17 04:56:15;;;;;;;9.40;8.40;;;;;;;3.93;100.00;94593.53;5033051;28;102498;-62
2022/11/17 04:58:43;;;;;;;9.13;8.33;;;;;;;3.97;100.00;94594.59;5014090;28;105507;-63
2022/11/17 05:01:13;;;;;;;10.20;9.20;;;;;;;3.78;100.00;94601.28;5033012;28;101836;-63
2022/11/17 05:03:42;;;;;;;11.53;9.40;;;;;;;3.82;100.00;94605.00;5032191;28;102880;-63
2022/11/17 05:06:11;;;;;;;10.40;9.40;;;;;;;3.79;100.00;94608.13;5032412;28;102707;-63
2022/11/17 05:08:39;;;;;;;10.70;9.70;;;;;;;3.75;100.00;94601.78;5032061;28;101855;-63
2022/11/17 05:13:52;;;;;;;10.43;9.43;;;;;;;3.87;100.00;94599.78;5033492;28;106127;-63
2022/11/17 05:19:05;;;;;;;9.97;9.07;;;;;;;3.80;100.00;94604.44;5031788;28;103105;-63
2022/11/17 05:21:37;;;;;;;10.37;9.40;;;;;;;3.77;100.00;94604.97;5032659;28;101887;-63
2022/11/17 05:24:04;;;;;;;10.47;9.57;;;;;;;3.80;100.00;94612.34;5014643;28;104205;-63
2022/11/17 05:26:33;;;;;;;10.27;9.37;;;;;;;3.85;100.00;94599.25;5030689;27;102625;-63
2022/11/17 05:29:02;;;;;;;10.40;9.40;;;;;;;3.88;100.00;94589.00;5013991;28;102061;-63
2022/11/17 05:31:30;;;;;;;9.90;9.00;;;;;;;3.91;100.00;94593.78;5013613;28;105726;-62
2022/11/17 05:33:57;;;;;;;10.73;9.80;;;;;;;3.95;100.00;94589.59;5013391;28;106537;-63
2022/11/17 05:36:27;;;;;;;9.77;8.97;;;;;;;4.01;100.00;94588.59;5017477;28;101877;-63
2022/11/17 05:38:56;;;;;;;10.47;9.57;;;;;;;3.92;100.00;94578.78;5031281;28;102785;-63
2022/11/17 05:41:23;;;;;;;10.67;9.57;;;;;;;3.99;100.00;94576.72;5032252;28;101821;-63
2022/11/17 05:43:51;;;;;;;9.93;9.03;;;;;;;3.91;100.00;94579.81;5013801;28;105711;-63
2022/11/17 05:46:19;;;;;;;9.50;8.60;;;;;;;3.97;100.00;94581.44;5031247;28;102604;-63
2022/11/17 05:48:47;;;;;;;9.70;8.80;;;;;;;3.95;100.00;94589.59;5031382;28;101883;-63
2022/11/17 05:51:14;;;;;;;9.93;9.03;;;;;;;3.92;100.00;94600.63;5010498;28;105444;-63
2022/11/17 05:53:44;;;;;;;10.23;9.20;;;;;;;4.04;100.00;94600.44;5011582;28;102536;-63
2022/11/17 05:56:34;;;;;;;11.60;10.50;;;;;;;4.02;100.00;94602.50;5008835;28;101808;-63
2022/11/17 05:59:07;;;;;;;11.03;10.03;;;;;;;4.12;100.00;94613.09;5015853;28;105468;-63
2022/11/17 06:01:36;;;;;;;11.30;10.30;;;;;;;4.14;100.00;94611.03;5013190;28;103707;-63
2022/11/17 06:04:05;;;;;;;11.27;10.17;;;;;;;4.14;100.00;94605.78;5012799;28;105296;-63
2022/11/17 06:06:37;;;;;;;10.90;9.80;;;;;;;4.21;100.00;94612.38;5012258;28;105370;-63
2022/11/17 06:09:05;;;;;;;10.97;9.90;;;;;;;4.14;100.00;94629.44;5032296;28;101875;-63
2022/11/17 06:11:33;;;;;;;12.40;11.10;;;;;;;4.13;100.00;94644.41;5032036;28;102299;-63
2022/11/17 06:14:00;;;;;;;11.73;10.63;;;;;;;4.08;100.00;94646.19;5012133;28;105391;-63
2022/11/17 06:16:31;;;;;;;11.63;10.47;;;;;;;4.01;100.00;94650.91;5012563;28;103209;-63
2022/11/17 06:19:03;;;;;;;11.00;9.97;;;;;;;4.01;100.00;94645.63;5031131;28;102170;-63
2022/11/17 06:21:31;;;;;;;11.60;10.30;;;;;;;3.96;100.00;94643.78;5015515;28;105468;-63
2022/11/17 06:23:59;;;;;;;11.63;10.53;;;;;;;3.89;100.00;94640.56;5012533;28;105251;-63
2022/11/17 06:26:26;;;;;;;11.17;10.07;;;;;;;3.95;100.00;94644.00;5011811;28;103953;-63
2022/11/17 06:28:56;;;;;;;11.87;10.73;;;;;;;3.90;100.00;94638.72;5030501;28;103397;-63
2022/11/17 06:31:25;;;;;;;11.83;10.73;;;;;;;3.93;100.00;94646.13;5012311;28;105609;-63
2022/11/17 06:33:52;;;;;;;11.73;10.53;;;;;;;3.97;100.00;94660.31;5011876;28;106406;-63
2022/11/17 06:36:20;;;;;;;11.20;10.20;;;;;;;3.96;100.00;94671.88;5012767;28;101886;-63
2022/11/17 06:38:47;;;;;;;10.93;9.93;;;;;;;4.00;100.00;94665.91;5011510;28;105490;-63
2022/11/17 06:41:13;;;;;;;10.70;9.70;;;;;;;4.06;100.00;94671.97;5029644;28;102742;-63
2022/11/17 06:43:40;;;;;;;11.50;10.37;;;;;;;4.12;100.00;94690.19;5015271;28;101930;-63
2022/11/17 06:46:09;;;;;;;12.03;10.93;;;;;;;4.19;100.00;94692.56;5029110;28;103159;-63
2022/11/17 06:48:36;;;;;;;11.20;10.10;;;;;;;4.26;100.00;94690.53;5029908;28;102293;-63
2022/11/17 06:51:04;;;;;;;12.67;11.47;;;;;;;4.20;100.00;94688.94;5029749;28;101787;-63
2022/11/17 06:53:33;;;;;;;12.83;11.53;;;;;;;4.23;100.00;94677.88;5011078;28;104653;-63
2022/11/17 06:56:06;;;;;;;13.07;11.83;;;;;;;4.32;100.00;94687.69;5012099;28;101861;-63
2022/11/17 06:58:34;;;;;;;11.50;10.40;;;;;;;4.39;100.00;94677.75;5011658;28;105342;-63
2022/11/17 07:01:03;;;;;;;12.70;11.43;;;;;;;4.48;100.00;94680.69;5029362;28;103055;-63
2022/11/17 07:03:33;;;;;;;13.07;11.87;;;;;;;4.52;100.00;94685.19;5014962;28;101875;-63
2022/11/17 07:06:01;;;;;;;13.83;12.53;;;;;;;4.58;100.00;94683.41;5011287;28;105563;-63
2022/11/17 07:08:28;;;;;;;13.57;12.27;;;;;;;4.53;100.00;94686.00;5011445;28;101824;-63
2022/11/17 07:10:55;;;;;;;12.63;11.33;;;;;;;4.59;100.00;94677.84;5011478;28;105747;-63
2022/11/17 07:13:24;;;;;;;12.23;10.47;;;;;;;4.62;100.00;94700.25;5028903;28;102592;-63
2022/11/17 07:15:51;;;;;;;13.37;11.90;;;;;;;4.60;100.00;94694.44;5029209;28;102244;-63
2022/11/17 07:18:19;;;;;;;12.30;11.10;;;;;;;4.64;100.00;94706.06;5011914;28;105274;-63
2022/11/17 07:20:48;;;;;;;12.43;11.17;;;;;;;4.63;100.00;94697.38;5029141;28;102922;-63
2022/11/17 07:23:16;;;;;;;11.93;10.63;;;;;;;4.69;100.00;94700.84;5011252;28;101869;-63
2022/11/17 07:25:45;;;;;;;11.53;10.50;;;;;;;4.83;100.00;94704.56;5014499;28;102396;-63
2022/11/17 07:28:12;;;;;;;13.53;12.13;;;;;;;4.98;100.00;94694.94;5029636;28;101864;-63
2022/11/17 07:30:39;;;;;;;12.60;11.33;;;;;;;5.02;100.00;94689.94;5011164;28;105188;-63
2022/11/17 07:33:07;;;;;;;15.07;13.47;;;;;;;5.15;100.00;94698.16;5029103;28;101786;-63
2022/11/17 07:35:36;;;;;;;16.10;14.50;;;;;;;5.24;100.00;94682.66;5010639;28;101794;-63
2022/11/17 07:38:04;;;;;;;17.87;14.90;;;;;;;5.23;100.00;94683.72;5011062;28;105105;-63
2022/11/17 07:40:32;;;;;;;15.67;13.57;;;;;;;5.22;100.00;94680.28;5028469;28;103148;-63
2022/11/17 07:42:59;;;;;;;14.63;13.17;;;;;;;5.26;100.00;94672.63;5029442;28;101918;-63
2022/11/17 07:45:27;;;;;;;13.97;12.50;;;;;;;5.28;100.00;94675.78;5043891;27;105330;-64
2022/11/17 07:47:56;;;;;;;12.40;10.83;;;;;;;5.33;100.00;94689.78;5032257;28;104179;-63
2022/11/17 07:50:24;;;;;;;12.87;11.50;;;;;;;5.41;100.00;94691.13;5027699;27;102309;-63
2022/11/17 07:52:54;;;;;;;13.57;11.47;;;;;;;5.47;100.00;94675.09;5028756;28;103487;-63
2022/11/17 07:55:23;;;;;;;13.23;11.77;;;;;;;5.59;100.00;94686.19;5010739;28;102032;-63
2022/11/17 07:57:55;;;;;;;13.57;12.07;;;;;;;5.64;100.00;94696.75;5029075;28;102567;-63
2022/11/17 08:00:22;;;;;;;14.37;12.80;;;;;;;5.42;100.00;94701.44;5010059;28;105340;-63
2022/11/17 08:02:49;;;;;;;12.73;11.23;;;;;;;5.51;100.00;94691.94;5029241;28;101828;-63
2022/11/17 08:05:17;;;;;;;13.77;12.37;;;;;;;5.65;100.00;94697.50;5010557;28;105659;-63
2022/11/17 08:07:45;;;;;;;15.20;13.60;;;;;;;5.63;100.00;94712.81;5028374;28;104217;-63
2022/11/17 08:10:12;;;;;;;15.90;14.20;;;;;;;5.61;100.00;94709.63;5032073;28;101766;-63
2022/11/17 08:12:42;;;;;;;12.83;11.53;;;;;;;5.61;100.00;94718.34;5010385;28;105627;-63
2022/11/17 08:15:09;;;;;;;14.53;13.03;;;;;;;5.72;100.00;94703.34;5028925;28;102060;-63
2022/11/17 08:17:36;;;;;;;14.10;11.70;;;;;;;5.93;100.00;94694.44;5028978;28;102859;-63
2022/11/17 08:20:05;;;;;;;14.07;12.37;;;;;;;5.92;100.00;94703.41;5010072;28;106631;-63
2022/11/17 08:22:33;;;;;;;13.30;11.90;;;;;;;5.84;100.00;94715.25;5027764;28;102345;-63
2022/11/17 08:24:59;;;;;;;13.03;11.73;;;;;;;6.12;100.00;94696.28;5028935;28;102432;-63
2022/11/17 08:27:27;;;;;;;12.70;11.40;;;;;;;6.20;100.00;94716.06;5027511;28;102653;-63
2022/11/17 08:29:55;;;;;;;14.90;13.60;;;;;;;6.10;100.00;94710.78;5028987;28;102174;-63
2022/11/17 08:32:23;;;;;;;14.80;13.30;;;;;;;6.32;100.00;94700.78;5013301;28;105463;-63
2022/11/17 08:34:51;;;;;;;13.03;11.80;;;;;;;6.38;100.00;94692.59;5028315;28;102131;-63
2022/11/17 08:37:18;;;;;;;12.83;11.53;;;;;;;6.42;100.00;94677.81;5010144;28;105198;-63
2022/11/17 08:39:45;;;;;;;12.10;10.90;;;;;;;6.14;100.00;94702.09;5008913;28;105903;-63
2022/11/17 08:42:12;;;;;;;11.50;10.30;;;;;;;6.13;100.00;94694.44;5028492;28;101842;-63
2022/11/17 08:44:39;;;;;;;11.50;10.40;;;;;;;6.28;100.00;94683.91;5028964;28;102414;-63
2022/11/17 08:47:07;;;;;;;14.33;12.20;;;;;;;6.38;100.00;94679.38;5027669;28;103459;-63
2022/11/17 08:49:34;;;;;;;11.23;10.03;;;;;;;6.40;100.00;94679.13;5010142;28;101981;-63
2022/11/17 08:52:01;;;;;;;11.77;10.57;;;;;;;6.44;100.00;94674.91;5028463;28;102310;-63
2022/11/17 08:54:28;;;;;;;11.27;10.27;;;;;;;6.52;100.00;94687.56;5013002;28;101887;-63
2022/11/17 08:56:57;;;;;;;15.23;11.07;;;;;;;6.37;100.00;94712.13;5010059;28;104984;-63
2022/11/17 08:59:24;;;;;;;17.50;12.57;;;;;;;6.34;100.00;94680.19;5028248;28;102516;-63
2022/11/17 09:01:53;;;;;;;13.87;11.30;;;;;;;6.70;100.00;94697.59;5011727;28;101992;-63
2022/11/17 09:04:21;;;;;;;10.53;9.53;;;;;;;6.61;100.00;94699.94;4997262;28;105374;-63
2022/11/17 09:06:48;;;;;;;13.90;10.77;;;;;;;6.78;100.00;94694.38;5032225;28;102635;-63
2022/11/17 09:09:15;;;;;;;11.23;10.13;;;;;;;6.85;100.00;94700.19;5013394;28;101836;-63
2022/11/17 09:11:42;;;;;;;10.20;9.20;;;;;;;6.92;100.00;94706.78;5031667;28;102467;-63
2022/11/17 09:14:09;;;;;;;9.70;8.70;;;;;;;7.01;100.00;94712.28;5035758;28;102516;-63
2022/11/17 09:16:36;;;;;;;13.13;11.70;;;;;;;6.97;100.00;94724.44;5032797;28;102299;-63
2022/11/17 09:19:04;;;;;;;10.20;9.07;;;;;;;7.04;100.00;94738.19;5031152;28;103188;-63
2022/11/17 09:21:32;;;;;;;9.20;7.20;;;;;;;7.16;100.00;94738.69;5014402;28;101878;-63
2022/11/17 09:23:59;;;;;;;8.07;7.23;;;;;;;7.29;100.00;94724.88;5032964;28;102869;-63
2022/11/17 09:26:27;;;;;;;8.77;7.97;;;;;;;7.24;100.00;94733.63;5031737;28;103996;-63
2022/11/17 09:28:54;;;;;;;8.93;8.10;;;;;;;7.21;100.00;94730.75;5014095;28;101912;-63
2022/11/17 09:31:22;;;;;;;7.40;6.80;;;;;;;7.03;100.00;94747.19;5014177;28;105288;-63
2022/11/17 09:33:49;;;;;;;7.13;6.43;;;;;;;7.14;100.00;94733.66;5013572;28;105888;-63
2022/11/17 09:36:17;;;;;;;7.13;6.53;;;;;;;7.41;100.00;94751.84;5036222;28;102381;-63
2022/11/17 09:38:46;;;;;;;7.23;6.53;;;;;;;7.41;100.00;94754.47;5031419;27;102515;-63
2022/11/17 09:41:26;;;;;;;7.90;7.20;;;;;;;7.85;100.00;94742.91;5032136;28;101825;-63
2022/11/17 09:44:07;;;;;;;7.47;6.80;;;;;;;7.95;100.00;94744.69;5013958;28;104514;-63
2022/11/17 09:46:46;;;;;;;6.70;6.20;;;;;;;8.01;100.00;94740.97;5031575;28;103088;-63
2022/11/17 09:49:26;;;;;;;7.10;6.40;;;;;;;8.10;100.00;94732.16;5013776;28;101914;-63
2022/11/17 09:51:58;;;;;;;6.63;6.03;;;;;;;8.18;100.00;94739.50;5014001;28;105627;-63
2022/11/17 09:54:41;;;;;;;5.50;5.10;;;;;;;8.35;100.00;94737.31;5031514;28;102709;-63
2022/11/17 09:57:18;;;;;;;7.83;5.67;;;;;;;8.36;100.00;94736.25;5032321;28;101807;-63
2022/11/17 09:59:45;;;;;;;6.63;5.33;;;;;;;8.54;100.00;94726.84;5016732;28;104191;-63
2022/11/17 10:02:13;;;;;;;6.40;5.80;;;;;;;8.62;100.00;94726.25;5013852;28;101849;-63
2022/11/17 10:04:39;;;;;;;6.03;5.60;;;;;;;8.89;100.00;94729.19;5030271;28;102477;-63
2022/11/17 10:07:08;;;;;;;8.37;7.47;;;;;;;8.98;100.00;94714.22;5031287;28;103162;-63
2022/11/17 10:09:42;;;;;;;8.00;7.30;;;;;;;8.87;100.00;94724.16;5031732;28;102138;-63
2022/11/17 10:12:16;;;;;;;6.53;5.97;;;;;;;8.79;100.00;94723.97;5013750;28;104165;-63
2022/11/17 10:14:44;;;;;;;6.60;6.00;;;;;;;8.98;100.00;94711.59;5012642;28;105414;-63
2022/11/17 10:17:11;;;;;;;6.90;6.30;;;;;;;9.08;100.00;94711.47;5031735;28;101812;-63
2022/11/17 10:19:39;;;;;;;7.07;6.47;;;;;;;9.32;100.00;94718.38;5013537;28;103718;-63
2022/11/17 10:22:20;;;;;;;5.87;5.37;;;;;;;9.53;100.00;94726.88;5016308;28;105286;-63
2022/11/17 10:24:53;;;;;;;5.60;5.07;;;;;;;9.38;100.00;94711.94;5013263;28;103738;-63
2022/11/17 10:27:23;;;;;;;6.10;5.07;;;;;;;9.43;100.00;94713.75;5030622;28;101684;-63
2022/11/17 10:30:01;;;;;;;5.03;4.63;;;;;;;9.89;100.00;94718.22;5012572;28;102356;-62
2022/11/17 10:32:39;;;;;;;5.10;4.70;;;;;;;10.15;100.00;94721.31;5043402;27;105218;-63
2022/11/17 10:35:17;;;;;;;5.50;4.97;;;;;;;10.58;100.00;94706.84;5047216;27;105736;-63
2022/11/17 10:37:54;;;;;;;4.73;4.37;;;;;;;10.67;100.00;94713.06;5031196;28;101839;-63
2022/11/17 10:40:24;;;;;;;5.20;4.30;;;;;;;10.76;100.00;94712.13;5030678;28;102272;-63
2022/11/17 10:43:00;;;;;;;4.37;4.07;;;;;;;10.78;100.00;94706.50;5028953;28;103929;-63
2022/11/17 10:45:27;;;;;;;4.50;4.10;;;;;;;11.12;100.00;94693.69;5015440;28;101974;-62
2022/11/17 10:48:09;;;;;;;5.40;5.00;;;;;;;11.45;100.00;94692.50;5030398;28;102689;-62
2022/11/17 10:50:36;;;;;;;4.10;3.80;;;;;;;11.14;100.00;94686.19;5011833;28;102997;-62
2022/11/17 10:53:28;;;;;;;3.50;3.30;;;;;;;11.57;100.00;94674.16;5030705;28;102255;-62
2022/11/17 10:56:04;;;;;;;3.97;3.67;;;;;;;11.64;100.00;94683.34;5010438;28;105097;-63
2022/11/17 10:58:32;;;;;;;5.13;4.63;;;;;;;11.82;100.00;94693.09;5031311;28;101742;-63
2022/11/17 11:01:02;;;;;;;12.37;11.10;;;;;;;11.76;100.00;94694.28;5025087;27;102382;-63
2022/11/17 11:04:14;;;;;;;4.20;3.90;;;;;;;11.34;100.00;94686.56;5007851;28;103774;-62
2022/11/17 11:06:47;;;;;;;3.70;3.40;;;;;;;11.25;100.00;94683.03;5044075;27;101797;-62
2022/11/17 11:09:21;;;;;;;3.70;3.40;;;;;;;11.32;100.00;94685.28;5011692;28;105761;-62
2022/11/17 11:12:03;;;;;;;3.63;3.33;;;;;;;11.11;100.00;94686.75;5012516;28;101870;-66
2022/11/17 11:14:37;;;;;;;3.77;3.47;;;;;;;11.11;100.00;94687.56;5012488;28;105545;-61
2022/11/17 11:17:11;;;;;;;3.30;3.03;;;;;;;10.92;100.00;94686.84;5030406;28;102571;-61
2022/11/17 11:19:40;;;;;;;4.23;3.83;;;;;;;10.90;100.00;94691.66;5030492;28;101896;-61
2022/11/17 11:22:31;;;;;;;16.87;13.30;;;;;;;10.98;100.00;94687.53;5011642;28;105051;-61
2022/11/17 11:25:10;;;;;;;8.93;7.27;;;;;;;11.27;100.00;94686.19;5009468;28;105747;-60
2022/11/17 11:28:04;;;;;;;4.40;3.90;;;;;;;11.53;100.00;94699.78;5030652;28;101929;-60
2022/11/17 11:30:36;;;;;;;3.50;3.20;;;;;;;11.53;100.00;94695.25;5015094;28;105586;-61
2022/11/17 11:33:43;;;;;;;4.20;3.80;;;;;;;11.44;100.00;94693.59;5029992;28;101844;-60
2022/11/17 11:36:30;;;;;;;3.23;2.97;;;;;;;11.48;100.00;94700.69;5025845;28;105213;-60
2022/11/17 11:39:04;;;;;;;3.80;3.50;;;;;;;11.37;100.00;94698.50;5022397;27;103229;-60
2022/11/17 11:42:12;;;;;;;2.90;2.70;;;;;;;11.49;100.00;94688.16;5030107;28;101911;-61
2022/11/17 11:45:03;;;;;;;2.97;2.67;;;;;;;11.51;100.00;94693.97;5029940;28;102729;-61
2022/11/17 11:47:49;;;;;;;3.63;3.33;;;;;;;11.47;100.00;94691.13;5029316;28;102487;-61
2022/11/17 11:50:21;;;;;;;2.30;2.13;;;;;;;11.45;100.00;94676.53;5009117;28;101832;-61
2022/11/17 11:53:04;;;;;;;3.70;2.30;;;;;;;11.41;100.00;94680.88;5010800;28;105319;-60
2022/11/17 11:55:34;;;;;;;2.20;2.10;;;;;;;11.49;100.00;94691.59;5033218;28;102761;-60
2022/11/17 11:58:11;;;;;;;1.90;1.80;;;;;;;11.38;100.00;94687.56;5029989;28;103486;-61
2022/11/17 12:00:41;;;;;;;3.13;2.50;;;;;;;11.13;100.00;94690.69;5029058;28;102541;-61
2022/11/17 12:03:25;;;;;;;2.40;2.20;;;;;;;11.17;100.00;94690.94;5011713;28;101912;-61
2022/11/17 12:09:41;;;;;;;2.20;2.10;;;;;;;11.56;100.00;94689.31;4967621;28;105508;-61
2022/11/17 12:12:15;;;;;;;2.20;2.00;;;;;;;11.33;100.00;94697.53;5021819;28;102055;-61